sensor_id;sensor_type;location;lat;lon;timestamp;P1;durP1;ratioP1;P2;durP2;ratioP2
65358;SDS011;52491;45.900;6.346;2022-10-15T00:00:36;1.55;;;0.80;;
65358;SDS011;52491;45.900;6.346;2022-10-15T00:03:03;1.75;;;1.02;;
65358;SDS011;52491;45.900;6.346;2022-10-15T00:05:28;1.25;;;0.70;;
65358;SDS011;52491;45.900;6.346;2022-10-15T00:07:54;1.00;;;0.90;;
65358;SDS011;52491;45.900;6.346;2022-10-15T00:10:20;0.73;;;0.70;;
65358;SDS011;52491;45.900;6.346;2022-10-15T00:12:46;0.88;;;0.80;;
65358;SDS011;52491;45.900;6.346;2022-10-15T00:15:12;0.90;;;0.80;;
65358;SDS011;52491;45.900;6.346;2022-10-15T00:17:38;0.70;;;0.70;;
65358;SDS011;52491;45.900;6.346;2022-10-15T00:20:05;1.25;;;0.95;;
65358;SDS011;52491;45.900;6.346;2022-10-15T00:22:33;1.17;;;0.73;;
65358;SDS011;52491;45.900;6.346;2022-10-15T00:24:59;0.60;;;0.45;;
65358;SDS011;52491;45.900;6.346;2022-10-15T00:27:24;1.10;;;0.82;;
65358;SDS011;52491;45.900;6.346;2022-10-15T00:29:50;1.75;;;0.80;;
65358;SDS011;52491;45.900;6.346;2022-10-15T00:32:16;0.60;;;0.60;;
65358;SDS011;52491;45.900;6.346;2022-10-15T00:34:42;1.52;;;0.90;;
65358;SDS011;52491;45.900;6.346;2022-10-15T00:37:07;2.17;;;0.75;;
65358;SDS011;52491;45.900;6.346;2022-10-15T00:39:33;0.80;;;0.57;;
65358;SDS011;52491;45.900;6.346;2022-10-15T00:42:00;1.23;;;0.60;;
65358;SDS011;52491;45.900;6.346;2022-10-15T00:49:32;1.65;;;0.95;;
65358;SDS011;52491;45.900;6.346;2022-10-15T00:52:05;0.95;;;0.75;;
65358;SDS011;52491;45.900;6.346;2022-10-15T00:54:37;1.02;;;0.73;;
65358;SDS011;52491;45.900;6.346;2022-10-15T00:57:06;1.20;;;0.73;;
65358;SDS011;52491;45.900;6.346;2022-10-15T00:59:33;1.27;;;1.00;;
65358;SDS011;52491;45.900;6.346;2022-10-15T01:02:03;1.58;;;0.90;;
65358;SDS011;52491;45.900;6.346;2022-10-15T01:04:30;0.75;;;0.75;;
65358;SDS011;52491;45.900;6.346;2022-10-15T01:06:57;0.77;;;0.70;;
65358;SDS011;52491;45.900;6.346;2022-10-15T01:09:23;0.85;;;0.60;;
65358;SDS011;52491;45.900;6.346;2022-10-15T01:11:52;1.35;;;0.60;;
65358;SDS011;52491;45.900;6.346;2022-10-15T01:17:04;0.50;;;0.50;;
65358;SDS011;52491;45.900;6.346;2022-10-15T01:25:41;1.67;;;0.98;;
65358;SDS011;52491;45.900;6.346;2022-10-15T01:31:19;0.77;;;0.50;;
65358;SDS011;52491;45.900;6.346;2022-10-15T01:34:09;1.38;;;0.60;;
65358;SDS011;52491;45.900;6.346;2022-10-15T01:37:08;0.70;;;0.45;;
65358;SDS011;52491;45.900;6.346;2022-10-15T01:39:43;0.40;;;0.40;;
65358;SDS011;52491;45.900;6.346;2022-10-15T01:42:24;1.23;;;0.80;;
65358;SDS011;52491;45.900;6.346;2022-10-15T01:44:59;1.15;;;0.40;;
65358;SDS011;52491;45.900;6.346;2022-10-15T01:50:16;0.82;;;0.70;;
65358;SDS011;52491;45.900;6.346;2022-10-15T01:52:45;0.50;;;0.50;;
65358;SDS011;52491;45.900;6.346;2022-10-15T01:55:14;0.45;;;0.45;;
65358;SDS011;52491;45.900;6.346;2022-10-15T01:57:42;0.45;;;0.45;;
65358;SDS011;52491;45.900;6.346;2022-10-15T02:00:09;1.38;;;0.85;;
65358;SDS011;52491;45.900;6.346;2022-10-15T02:02:36;1.10;;;1.10;;
65358;SDS011;52491;45.900;6.346;2022-10-15T02:05:03;0.98;;;0.40;;
65358;SDS011;52491;45.900;6.346;2022-10-15T02:07:48;0.80;;;0.43;;
65358;SDS011;52491;45.900;6.346;2022-10-15T02:10:26;1.25;;;0.60;;
65358;SDS011;52491;45.900;6.346;2022-10-15T02:15:51;0.57;;;0.50;;
65358;SDS011;52491;45.900;6.346;2022-10-15T02:18:40;0.45;;;0.45;;
65358;SDS011;52491;45.900;6.346;2022-10-15T02:21:35;1.92;;;0.52;;
65358;SDS011;52491;45.900;6.346;2022-10-15T02:24:08;1.23;;;0.55;;
65358;SDS011;52491;45.900;6.346;2022-10-15T02:26:38;0.90;;;0.63;;
65358;SDS011;52491;45.900;6.346;2022-10-15T02:29:07;0.70;;;0.50;;
65358;SDS011;52491;45.900;6.346;2022-10-15T02:31:37;0.47;;;0.40;;
65358;SDS011;52491;45.900;6.346;2022-10-15T02:34:06;1.52;;;0.75;;
65358;SDS011;52491;45.900;6.346;2022-10-15T02:36:37;0.57;;;0.55;;
65358;SDS011;52491;45.900;6.346;2022-10-15T02:39:04;0.57;;;0.43;;
65358;SDS011;52491;45.900;6.346;2022-10-15T02:41:34;0.30;;;0.30;;
65358;SDS011;52491;45.900;6.346;2022-10-15T02:44:01;0.93;;;0.60;;
65358;SDS011;52491;45.900;6.346;2022-10-15T02:46:27;1.65;;;0.60;;
65358;SDS011;52491;45.900;6.346;2022-10-15T02:48:55;0.75;;;0.68;;
65358;SDS011;52491;45.900;6.346;2022-10-15T02:51:21;0.60;;;0.38;;
65358;SDS011;52491;45.900;6.346;2022-10-15T02:53:47;0.55;;;0.43;;
65358;SDS011;52491;45.900;6.346;2022-10-15T02:56:13;1.02;;;0.68;;
65358;SDS011;52491;45.900;6.346;2022-10-15T02:58:39;0.28;;;0.28;;
65358;SDS011;52491;45.900;6.346;2022-10-15T03:01:06;0.30;;;0.30;;
65358;SDS011;52491;45.900;6.346;2022-10-15T03:03:34;1.65;;;0.40;;
65358;SDS011;52491;45.900;6.346;2022-10-15T03:06:00;0.55;;;0.40;;
65358;SDS011;52491;45.900;6.346;2022-10-15T03:08:27;1.33;;;0.57;;
65358;SDS011;52491;45.900;6.346;2022-10-15T03:10:53;0.38;;;0.38;;
65358;SDS011;52491;45.900;6.346;2022-10-15T03:13:18;0.50;;;0.50;;
65358;SDS011;52491;45.900;6.346;2022-10-15T03:15:44;0.70;;;0.40;;
65358;SDS011;52491;45.900;6.346;2022-10-15T03:18:09;0.82;;;0.50;;
65358;SDS011;52491;45.900;6.346;2022-10-15T03:20:35;0.40;;;0.40;;
65358;SDS011;52491;45.900;6.346;2022-10-15T03:23:01;1.08;;;0.32;;
65358;SDS011;52491;45.900;6.346;2022-10-15T03:25:26;0.75;;;0.50;;
65358;SDS011;52491;45.900;6.346;2022-10-15T03:27:52;1.65;;;0.50;;
65358;SDS011;52491;45.900;6.346;2022-10-15T03:30:18;0.93;;;0.40;;
65358;SDS011;52491;45.900;6.346;2022-10-15T03:32:44;1.70;;;0.40;;
65358;SDS011;52491;45.900;6.346;2022-10-15T03:35:09;4.25;;;0.85;;
65358;SDS011;52491;45.900;6.346;2022-10-15T03:37:35;3.78;;;0.40;;
65358;SDS011;52491;45.900;6.346;2022-10-15T03:40:01;3.38;;;0.43;;
65358;SDS011;52491;45.900;6.346;2022-10-15T03:42:27;7.47;;;0.50;;
65358;SDS011;52491;45.900;6.346;2022-10-15T03:44:52;1.33;;;0.40;;
65358;SDS011;52491;45.900;6.346;2022-10-15T03:47:18;0.50;;;0.43;;
65358;SDS011;52491;45.900;6.346;2022-10-15T03:49:44;1.27;;;0.93;;
65358;SDS011;52491;45.900;6.346;2022-10-15T03:52:09;0.80;;;0.47;;
65358;SDS011;52491;45.900;6.346;2022-10-15T03:54:35;0.90;;;0.63;;
65358;SDS011;52491;45.900;6.346;2022-10-15T03:57:00;0.90;;;0.50;;
65358;SDS011;52491;45.900;6.346;2022-10-15T03:59:26;2.80;;;0.90;;
65358;SDS011;52491;45.900;6.346;2022-10-15T04:01:51;1.30;;;0.75;;
65358;SDS011;52491;45.900;6.346;2022-10-15T04:04:17;2.38;;;0.40;;
65358;SDS011;52491;45.900;6.346;2022-10-15T04:06:42;0.60;;;0.50;;
65358;SDS011;52491;45.900;6.346;2022-10-15T04:09:11;0.55;;;0.38;;
65358;SDS011;52491;45.900;6.346;2022-10-15T04:11:38;0.47;;;0.47;;
65358;SDS011;52491;45.900;6.346;2022-10-15T04:14:04;0.38;;;0.32;;
65358;SDS011;52491;45.900;6.346;2022-10-15T04:16:30;1.70;;;0.32;;
65358;SDS011;52491;45.900;6.346;2022-10-15T04:18:56;2.30;;;0.38;;
65358;SDS011;52491;45.900;6.346;2022-10-15T04:21:23;0.73;;;0.68;;
65358;SDS011;52491;45.900;6.346;2022-10-15T04:23:49;0.73;;;0.30;;
65358;SDS011;52491;45.900;6.346;2022-10-15T04:26:14;2.15;;;0.65;;
65358;SDS011;52491;45.900;6.346;2022-10-15T04:28:40;0.45;;;0.32;;
65358;SDS011;52491;45.900;6.346;2022-10-15T04:31:06;0.70;;;0.45;;
65358;SDS011;52491;45.900;6.346;2022-10-15T04:33:32;0.40;;;0.40;;
65358;SDS011;52491;45.900;6.346;2022-10-15T04:36:01;2.03;;;0.22;;
65358;SDS011;52491;45.900;6.346;2022-10-15T04:38:29;0.73;;;0.73;;
65358;SDS011;52491;45.900;6.346;2022-10-15T04:41:02;2.28;;;0.70;;
65358;SDS011;52491;45.900;6.346;2022-10-15T04:43:33;0.77;;;0.55;;
65358;SDS011;52491;45.900;6.346;2022-10-15T04:46:00;0.68;;;0.40;;
65358;SDS011;52491;45.900;6.346;2022-10-15T04:48:27;0.40;;;0.40;;
65358;SDS011;52491;45.900;6.346;2022-10-15T04:50:54;1.13;;;0.50;;
65358;SDS011;52491;45.900;6.346;2022-10-15T04:53:26;2.20;;;0.50;;
65358;SDS011;52491;45.900;6.346;2022-10-15T04:55:52;0.38;;;0.38;;
65358;SDS011;52491;45.900;6.346;2022-10-15T04:58:17;0.65;;;0.35;;
65358;SDS011;52491;45.900;6.346;2022-10-15T05:00:43;0.88;;;0.30;;
65358;SDS011;52491;45.900;6.346;2022-10-15T05:03:09;0.93;;;0.75;;
65358;SDS011;52491;45.900;6.346;2022-10-15T05:05:34;1.05;;;0.70;;
65358;SDS011;52491;45.900;6.346;2022-10-15T05:08:00;0.28;;;0.28;;
65358;SDS011;52491;45.900;6.346;2022-10-15T05:10:26;1.13;;;0.50;;
65358;SDS011;52491;45.900;6.346;2022-10-15T05:12:52;0.45;;;0.43;;
65358;SDS011;52491;45.900;6.346;2022-10-15T05:15:18;0.47;;;0.47;;
65358;SDS011;52491;45.900;6.346;2022-10-15T05:17:43;0.73;;;0.40;;
65358;SDS011;52491;45.900;6.346;2022-10-15T05:20:09;0.82;;;0.40;;
65358;SDS011;52491;45.900;6.346;2022-10-15T05:22:35;0.88;;;0.32;;
65358;SDS011;52491;45.900;6.346;2022-10-15T05:25:00;0.30;;;0.20;;
65358;SDS011;52491;45.900;6.346;2022-10-15T05:27:26;2.63;;;0.60;;
65358;SDS011;52491;45.900;6.346;2022-10-15T05:29:51;0.80;;;0.40;;
65358;SDS011;52491;45.900;6.346;2022-10-15T05:32:17;0.73;;;0.40;;
65358;SDS011;52491;45.900;6.346;2022-10-15T05:34:43;0.30;;;0.30;;
65358;SDS011;52491;45.900;6.346;2022-10-15T05:37:08;0.93;;;0.32;;
65358;SDS011;52491;45.900;6.346;2022-10-15T05:39:34;0.80;;;0.60;;
65358;SDS011;52491;45.900;6.346;2022-10-15T05:41:59;4.18;;;2.33;;
65358;SDS011;52491;45.900;6.346;2022-10-15T05:44:25;0.77;;;0.35;;
65358;SDS011;52491;45.900;6.346;2022-10-15T05:46:50;1.08;;;0.40;;
65358;SDS011;52491;45.900;6.346;2022-10-15T05:49:16;0.60;;;0.30;;
65358;SDS011;52491;45.900;6.346;2022-10-15T05:51:43;0.40;;;0.40;;
65358;SDS011;52491;45.900;6.346;2022-10-15T05:54:08;1.00;;;0.50;;
65358;SDS011;52491;45.900;6.346;2022-10-15T05:56:34;1.73;;;0.40;;
65358;SDS011;52491;45.900;6.346;2022-10-15T05:59:00;3.67;;;0.57;;
65358;SDS011;52491;45.900;6.346;2022-10-15T06:01:27;4.57;;;0.65;;
65358;SDS011;52491;45.900;6.346;2022-10-15T06:03:52;0.57;;;0.20;;
65358;SDS011;52491;45.900;6.346;2022-10-15T06:06:21;0.70;;;0.30;;
65358;SDS011;52491;45.900;6.346;2022-10-15T06:08:47;0.95;;;0.50;;
65358;SDS011;52491;45.900;6.346;2022-10-15T06:11:14;0.60;;;0.50;;
65358;SDS011;52491;45.900;6.346;2022-10-15T06:13:41;1.25;;;0.60;;
65358;SDS011;52491;45.900;6.346;2022-10-15T06:16:07;0.70;;;0.43;;
65358;SDS011;52491;45.900;6.346;2022-10-15T06:18:34;1.45;;;0.40;;
65358;SDS011;52491;45.900;6.346;2022-10-15T06:21:00;4.07;;;1.13;;
65358;SDS011;52491;45.900;6.346;2022-10-15T06:23:26;9.73;;;8.25;;
65358;SDS011;52491;45.900;6.346;2022-10-15T06:25:51;31.67;;;22.67;;
65358;SDS011;52491;45.900;6.346;2022-10-15T06:28:17;49.83;;;37.50;;
65358;SDS011;52491;45.900;6.346;2022-10-15T06:30:43;46.75;;;37.88;;
65358;SDS011;52491;45.900;6.346;2022-10-15T06:33:09;42.17;;;31.08;;
65358;SDS011;52491;45.900;6.346;2022-10-15T06:35:34;41.58;;;32.28;;
65358;SDS011;52491;45.900;6.346;2022-10-15T06:38:00;37.78;;;32.70;;
65358;SDS011;52491;45.900;6.346;2022-10-15T06:40:27;35.33;;;27.67;;
65358;SDS011;52491;45.900;6.346;2022-10-15T06:42:53;37.17;;;24.13;;
65358;SDS011;52491;45.900;6.346;2022-10-15T06:45:19;22.52;;;18.35;;
65358;SDS011;52491;45.900;6.346;2022-10-15T06:47:44;17.52;;;14.77;;
65358;SDS011;52491;45.900;6.346;2022-10-15T06:50:10;18.15;;;14.63;;
65358;SDS011;52491;45.900;6.346;2022-10-15T06:52:36;28.20;;;14.80;;
65358;SDS011;52491;45.900;6.346;2022-10-15T06:55:02;14.50;;;12.95;;
65358;SDS011;52491;45.900;6.346;2022-10-15T06:57:28;11.55;;;9.65;;
65358;SDS011;52491;45.900;6.346;2022-10-15T06:59:53;11.02;;;9.25;;
65358;SDS011;52491;45.900;6.346;2022-10-15T07:02:19;17.33;;;11.30;;
65358;SDS011;52491;45.900;6.346;2022-10-15T07:04:45;13.25;;;9.30;;
65358;SDS011;52491;45.900;6.346;2022-10-15T07:07:11;12.35;;;9.80;;
65358;SDS011;52491;45.900;6.346;2022-10-15T07:09:37;10.30;;;7.38;;
65358;SDS011;52491;45.900;6.346;2022-10-15T07:12:03;10.32;;;7.00;;
65358;SDS011;52491;45.900;6.346;2022-10-15T07:14:29;9.38;;;6.80;;
65358;SDS011;52491;45.900;6.346;2022-10-15T07:16:55;7.55;;;6.75;;
65358;SDS011;52491;45.900;6.346;2022-10-15T07:19:21;11.57;;;5.93;;
65358;SDS011;52491;45.900;6.346;2022-10-15T07:21:47;7.57;;;5.00;;
65358;SDS011;52491;45.900;6.346;2022-10-15T07:24:13;5.88;;;3.05;;
65358;SDS011;52491;45.900;6.346;2022-10-15T07:26:40;12.48;;;3.80;;
65358;SDS011;52491;45.900;6.346;2022-10-15T07:29:10;5.93;;;4.20;;
65358;SDS011;52491;45.900;6.346;2022-10-15T07:31:37;5.47;;;4.47;;
65358;SDS011;52491;45.900;6.346;2022-10-15T07:34:04;5.03;;;4.03;;
65358;SDS011;52491;45.900;6.346;2022-10-15T07:36:30;4.97;;;3.00;;
65358;SDS011;52491;45.900;6.346;2022-10-15T07:38:56;5.18;;;3.00;;
65358;SDS011;52491;45.900;6.346;2022-10-15T07:41:21;6.68;;;3.72;;
65358;SDS011;52491;45.900;6.346;2022-10-15T07:43:47;16.25;;;2.95;;
65358;SDS011;52491;45.900;6.346;2022-10-15T07:46:16;4.20;;;3.13;;
65358;SDS011;52491;45.900;6.346;2022-10-15T07:48:41;5.20;;;2.95;;
65358;SDS011;52491;45.900;6.346;2022-10-15T07:51:07;13.25;;;3.53;;
65358;SDS011;52491;45.900;6.346;2022-10-15T07:53:34;10.40;;;3.15;;
65358;SDS011;52491;45.900;6.346;2022-10-15T07:56:00;4.70;;;2.97;;
65358;SDS011;52491;45.900;6.346;2022-10-15T07:58:28;4.05;;;3.47;;
65358;SDS011;52491;45.900;6.346;2022-10-15T08:00:58;4.35;;;3.95;;
65358;SDS011;52491;45.900;6.346;2022-10-15T08:03:25;11.15;;;3.10;;
65358;SDS011;52491;45.900;6.346;2022-10-15T08:05:51;5.78;;;3.50;;
65358;SDS011;52491;45.900;6.346;2022-10-15T08:08:17;9.18;;;3.95;;
65358;SDS011;52491;45.900;6.346;2022-10-15T08:10:44;8.07;;;3.58;;
65358;SDS011;52491;45.900;6.346;2022-10-15T08:13:11;6.78;;;2.92;;
65358;SDS011;52491;45.900;6.346;2022-10-15T08:15:40;4.60;;;3.00;;
65358;SDS011;52491;45.900;6.346;2022-10-15T08:18:06;3.55;;;2.60;;
65358;SDS011;52491;45.900;6.346;2022-10-15T08:20:34;8.68;;;2.95;;
65358;SDS011;52491;45.900;6.346;2022-10-15T08:23:01;4.03;;;2.33;;
65358;SDS011;52491;45.900;6.346;2022-10-15T08:25:27;5.38;;;2.03;;
65358;SDS011;52491;45.900;6.346;2022-10-15T08:27:53;4.10;;;2.60;;
65358;SDS011;52491;45.900;6.346;2022-10-15T08:30:20;3.80;;;2.35;;
65358;SDS011;52491;45.900;6.346;2022-10-15T08:32:46;2.80;;;2.00;;
65358;SDS011;52491;45.900;6.346;2022-10-15T08:35:11;4.80;;;3.45;;
65358;SDS011;52491;45.900;6.346;2022-10-15T08:37:37;5.97;;;2.30;;
65358;SDS011;52491;45.900;6.346;2022-10-15T08:40:03;7.22;;;2.20;;
65358;SDS011;52491;45.900;6.346;2022-10-15T08:42:35;4.35;;;2.60;;
65358;SDS011;52491;45.900;6.346;2022-10-15T08:45:05;3.83;;;2.92;;
65358;SDS011;52491;45.900;6.346;2022-10-15T08:47:39;2.25;;;1.42;;
65358;SDS011;52491;45.900;6.346;2022-10-15T08:50:19;3.97;;;2.20;;
65358;SDS011;52491;45.900;6.346;2022-10-15T08:52:52;2.67;;;2.47;;
65358;SDS011;52491;45.900;6.346;2022-10-15T08:55:20;3.38;;;1.85;;
65358;SDS011;52491;45.900;6.346;2022-10-15T09:00:33;3.30;;;1.95;;
65358;SDS011;52491;45.900;6.346;2022-10-15T09:06:42;2.45;;;2.13;;
65358;SDS011;52491;45.900;6.346;2022-10-15T09:14:39;3.22;;;2.20;;
65358;SDS011;52491;45.900;6.346;2022-10-15T09:17:21;3.08;;;1.92;;
65358;SDS011;52491;45.900;6.346;2022-10-15T09:19:50;2.80;;;2.17;;
65358;SDS011;52491;45.900;6.346;2022-10-15T09:22:18;4.60;;;2.40;;
65358;SDS011;52491;45.900;6.346;2022-10-15T09:24:49;3.10;;;1.77;;
65358;SDS011;52491;45.900;6.346;2022-10-15T09:27:20;3.55;;;1.85;;
65358;SDS011;52491;45.900;6.346;2022-10-15T09:30:12;2.75;;;1.58;;
65358;SDS011;52491;45.900;6.346;2022-10-15T09:35:30;1.45;;;1.15;;
65358;SDS011;52491;45.900;6.346;2022-10-15T09:43:47;0.80;;;0.60;;
65358;SDS011;52491;45.900;6.346;2022-10-15T09:46:15;1.10;;;1.00;;
65358;SDS011;52491;45.900;6.346;2022-10-15T09:51:46;0.80;;;0.73;;
65358;SDS011;52491;45.900;6.346;2022-10-15T09:57:12;2.60;;;1.05;;
65358;SDS011;52491;45.900;6.346;2022-10-15T09:59:54;1.40;;;0.50;;
65358;SDS011;52491;45.900;6.346;2022-10-15T10:02:23;4.15;;;0.90;;
65358;SDS011;52491;45.900;6.346;2022-10-15T10:04:50;4.40;;;1.08;;
65358;SDS011;52491;45.900;6.346;2022-10-15T10:07:30;3.78;;;0.80;;
65358;SDS011;52491;45.900;6.346;2022-10-15T10:10:02;1.30;;;0.88;;
65358;SDS011;52491;45.900;6.346;2022-10-15T10:12:47;5.55;;;0.80;;
65358;SDS011;52491;45.900;6.346;2022-10-15T10:15:28;1.95;;;1.20;;
65358;SDS011;52491;45.900;6.346;2022-10-15T10:17:59;1.52;;;0.88;;
65358;SDS011;52491;45.900;6.346;2022-10-15T10:20:29;1.38;;;0.60;;
65358;SDS011;52491;45.900;6.346;2022-10-15T10:23:00;4.63;;;1.00;;
65358;SDS011;52491;45.900;6.346;2022-10-15T10:25:47;2.28;;;1.10;;
65358;SDS011;52491;45.900;6.346;2022-10-15T10:28:14;2.80;;;0.68;;
65358;SDS011;52491;45.900;6.346;2022-10-15T10:33:27;2.55;;;0.98;;
65358;SDS011;52491;45.900;6.346;2022-10-15T10:35:57;0.80;;;0.68;;
65358;SDS011;52491;45.900;6.346;2022-10-15T10:38:29;2.63;;;0.63;;
65358;SDS011;52491;45.900;6.346;2022-10-15T10:41:05;0.85;;;0.38;;
65358;SDS011;52491;45.900;6.346;2022-10-15T10:43:50;1.27;;;0.60;;
65358;SDS011;52491;45.900;6.346;2022-10-15T10:46:18;1.90;;;0.60;;
65358;SDS011;52491;45.900;6.346;2022-10-15T10:48:50;0.40;;;0.40;;
65358;SDS011;52491;45.900;6.346;2022-10-15T10:51:19;2.72;;;0.95;;
65358;SDS011;52491;45.900;6.346;2022-10-15T10:53:56;0.75;;;0.30;;
65358;SDS011;52491;45.900;6.346;2022-10-15T10:59:47;1.73;;;0.50;;
65358;SDS011;52491;45.900;6.346;2022-10-15T11:02:14;1.48;;;0.40;;
65358;SDS011;52491;45.900;6.346;2022-10-15T11:04:40;1.00;;;0.98;;
65358;SDS011;52491;45.900;6.346;2022-10-15T11:07:23;7.07;;;0.73;;
65358;SDS011;52491;45.900;6.346;2022-10-15T11:10:16;3.47;;;0.88;;
65358;SDS011;52491;45.900;6.346;2022-10-15T11:16:31;8.63;;;0.80;;
65358;SDS011;52491;45.900;6.346;2022-10-15T11:19:17;2.58;;;0.82;;
65358;SDS011;52491;45.900;6.346;2022-10-15T11:30:31;5.32;;;0.90;;
65358;SDS011;52491;45.900;6.346;2022-10-15T11:35:40;2.25;;;0.50;;
65358;SDS011;52491;45.900;6.346;2022-10-15T11:38:19;1.42;;;0.63;;
65358;SDS011;52491;45.900;6.346;2022-10-15T11:41:04;2.58;;;0.80;;
65358;SDS011;52491;45.900;6.346;2022-10-15T11:54:33;2.88;;;0.40;;
65358;SDS011;52491;45.900;6.346;2022-10-15T11:56:51;0.30;;;0.20;;
65358;SDS011;52491;45.900;6.346;2022-10-15T12:02:47;0.10;;;0.10;;
65358;SDS011;52491;45.900;6.346;2022-10-15T12:04:57;0.82;;;0.30;;
65358;SDS011;52491;45.900;6.346;2022-10-15T12:07:33;0.38;;;0.15;;
65358;SDS011;52491;45.900;6.346;2022-10-15T12:10:07;2.10;;;0.35;;
65358;SDS011;52491;45.900;6.346;2022-10-15T12:15:18;0.75;;;0.75;;
65358;SDS011;52491;45.900;6.346;2022-10-15T12:20:30;0.30;;;0.20;;
65358;SDS011;52491;45.900;6.346;2022-10-15T12:22:59;0.60;;;0.50;;
65358;SDS011;52491;45.900;6.346;2022-10-15T12:30:32;4.25;;;0.40;;
65358;SDS011;52491;45.900;6.346;2022-10-15T12:33:01;0.28;;;0.28;;
65358;SDS011;52491;45.900;6.346;2022-10-15T12:35:31;1.02;;;0.50;;
65358;SDS011;52491;45.900;6.346;2022-10-15T12:40:57;1.25;;;0.40;;
65358;SDS011;52491;45.900;6.346;2022-10-15T12:43:28;3.00;;;0.60;;
65358;SDS011;52491;45.900;6.346;2022-10-15T12:46:00;3.25;;;0.52;;
65358;SDS011;52491;45.900;6.346;2022-10-15T12:48:35;1.10;;;0.50;;
65358;SDS011;52491;45.900;6.346;2022-10-15T12:53:46;1.05;;;0.35;;
65358;SDS011;52491;45.900;6.346;2022-10-15T12:58:46;2.78;;;0.30;;
65358;SDS011;52491;45.900;6.346;2022-10-15T13:03:43;1.10;;;0.30;;
65358;SDS011;52491;45.900;6.346;2022-10-15T13:09:02;0.35;;;0.30;;
65358;SDS011;52491;45.900;6.346;2022-10-15T13:11:51;0.80;;;0.40;;
65358;SDS011;52491;45.900;6.346;2022-10-15T13:14:31;1.88;;;0.50;;
65358;SDS011;52491;45.900;6.346;2022-10-15T13:17:14;1.10;;;0.35;;
65358;SDS011;52491;45.900;6.346;2022-10-15T13:20:03;0.60;;;0.30;;
65358;SDS011;52491;45.900;6.346;2022-10-15T13:22:32;0.63;;;0.30;;
65358;SDS011;52491;45.900;6.346;2022-10-15T13:24:59;1.98;;;0.30;;
65358;SDS011;52491;45.900;6.346;2022-10-15T13:27:33;1.15;;;0.30;;
65358;SDS011;52491;45.900;6.346;2022-10-15T13:30:10;0.22;;;0.20;;
65358;SDS011;52491;45.900;6.346;2022-10-15T13:32:41;0.43;;;0.43;;
65358;SDS011;52491;45.900;6.346;2022-10-15T13:35:17;0.30;;;0.30;;
65358;SDS011;52491;45.900;6.346;2022-10-15T13:37:50;1.25;;;0.30;;
65358;SDS011;52491;45.900;6.346;2022-10-15T13:40:20;0.22;;;0.20;;
65358;SDS011;52491;45.900;6.346;2022-10-15T13:45:28;0.70;;;0.30;;
65358;SDS011;52491;45.900;6.346;2022-10-15T13:47:54;0.90;;;0.60;;
65358;SDS011;52491;45.900;6.346;2022-10-15T13:50:22;1.30;;;0.22;;
65358;SDS011;52491;45.900;6.346;2022-10-15T13:55:22;0.47;;;0.20;;
65358;SDS011;52491;45.900;6.346;2022-10-15T13:57:51;0.50;;;0.30;;
65358;SDS011;52491;45.900;6.346;2022-10-15T14:00:25;8.48;;;0.65;;
65358;SDS011;52491;45.900;6.346;2022-10-15T14:06:07;3.60;;;0.40;;
65358;SDS011;52491;45.900;6.346;2022-10-15T14:08:47;0.98;;;0.40;;
65358;SDS011;52491;45.900;6.346;2022-10-15T14:11:14;0.20;;;0.20;;
65358;SDS011;52491;45.900;6.346;2022-10-15T14:13:44;0.55;;;0.30;;
65358;SDS011;52491;45.900;6.346;2022-10-15T14:16:23;0.98;;;0.20;;
65358;SDS011;52491;45.900;6.346;2022-10-15T14:18:57;0.47;;;0.30;;
65358;SDS011;52491;45.900;6.346;2022-10-15T14:21:31;0.63;;;0.30;;
65358;SDS011;52491;45.900;6.346;2022-10-15T14:24:05;1.20;;;0.28;;
65358;SDS011;52491;45.900;6.346;2022-10-15T14:26:38;13.88;;;0.40;;
65358;SDS011;52491;45.900;6.346;2022-10-15T14:29:04;4.07;;;0.40;;
65358;SDS011;52491;45.900;6.346;2022-10-15T14:31:38;1.23;;;0.30;;
65358;SDS011;52491;45.900;6.346;2022-10-15T14:37:29;2.47;;;0.30;;
65358;SDS011;52491;45.900;6.346;2022-10-15T14:42:38;2.20;;;0.52;;
65358;SDS011;52491;45.900;6.346;2022-10-15T14:47:49;0.50;;;0.35;;
65358;SDS011;52491;45.900;6.346;2022-10-15T14:50:17;2.40;;;0.43;;
65358;SDS011;52491;45.900;6.346;2022-10-15T14:52:44;3.20;;;1.75;;
65358;SDS011;52491;45.900;6.346;2022-10-15T14:55:13;0.52;;;0.43;;
65358;SDS011;52491;45.900;6.346;2022-10-15T14:57:40;5.50;;;0.85;;
65358;SDS011;52491;45.900;6.346;2022-10-15T15:00:18;2.28;;;0.52;;
65358;SDS011;52491;45.900;6.346;2022-10-15T15:02:50;6.93;;;0.70;;
65358;SDS011;52491;45.900;6.346;2022-10-15T15:05:19;0.63;;;0.38;;
65358;SDS011;52491;45.900;6.346;2022-10-15T15:07:46;2.55;;;0.35;;
65358;SDS011;52491;45.900;6.346;2022-10-15T15:10:12;2.90;;;0.47;;
65358;SDS011;52491;45.900;6.346;2022-10-15T15:12:38;1.20;;;0.40;;
65358;SDS011;52491;45.900;6.346;2022-10-15T15:15:13;7.20;;;0.52;;
65358;SDS011;52491;45.900;6.346;2022-10-15T15:17:40;1.77;;;0.45;;
65358;SDS011;52491;45.900;6.346;2022-10-15T15:20:06;2.67;;;0.32;;
65358;SDS011;52491;45.900;6.346;2022-10-15T15:22:32;1.45;;;0.43;;
65358;SDS011;52491;45.900;6.346;2022-10-15T15:24:59;0.45;;;0.25;;
65358;SDS011;52491;45.900;6.346;2022-10-15T15:27:31;0.50;;;0.47;;
65358;SDS011;52491;45.900;6.346;2022-10-15T15:30:02;2.72;;;0.40;;
65358;SDS011;52491;45.900;6.346;2022-10-15T15:32:30;0.77;;;0.38;;
65358;SDS011;52491;45.900;6.346;2022-10-15T15:34:56;0.68;;;0.22;;
65358;SDS011;52491;45.900;6.346;2022-10-15T15:37:23;3.30;;;0.32;;
65358;SDS011;52491;45.900;6.346;2022-10-15T15:39:50;9.32;;;4.90;;
65358;SDS011;52491;45.900;6.346;2022-10-15T15:42:17;4.03;;;1.70;;
65358;SDS011;52491;45.900;6.346;2022-10-15T15:44:45;7.72;;;2.38;;
65358;SDS011;52491;45.900;6.346;2022-10-15T15:47:12;12.82;;;1.92;;
65358;SDS011;52491;45.900;6.346;2022-10-15T15:49:38;3.58;;;1.17;;
65358;SDS011;52491;45.900;6.346;2022-10-15T15:52:05;4.68;;;1.40;;
65358;SDS011;52491;45.900;6.346;2022-10-15T15:54:41;1.17;;;0.82;;
65358;SDS011;52491;45.900;6.346;2022-10-15T15:57:07;9.30;;;0.70;;
65358;SDS011;52491;45.900;6.346;2022-10-15T15:59:34;4.45;;;0.43;;
65358;SDS011;52491;45.900;6.346;2022-10-15T16:02:00;4.18;;;0.40;;
65358;SDS011;52491;45.900;6.346;2022-10-15T16:04:26;15.07;;;3.22;;
65358;SDS011;52491;45.900;6.346;2022-10-15T16:06:52;5.47;;;0.40;;
65358;SDS011;52491;45.900;6.346;2022-10-15T16:09:18;3.22;;;0.60;;
65358;SDS011;52491;45.900;6.346;2022-10-15T16:11:46;1.85;;;0.30;;
65358;SDS011;52491;45.900;6.346;2022-10-15T16:14:12;11.55;;;0.40;;
65358;SDS011;52491;45.900;6.346;2022-10-15T16:16:38;4.90;;;0.40;;
65358;SDS011;52491;45.900;6.346;2022-10-15T16:19:04;0.93;;;0.55;;
65358;SDS011;52491;45.900;6.346;2022-10-15T16:21:30;0.73;;;0.35;;
65358;SDS011;52491;45.900;6.346;2022-10-15T16:23:56;1.00;;;0.30;;
65358;SDS011;52491;45.900;6.346;2022-10-15T16:26:22;3.30;;;0.50;;
65358;SDS011;52491;45.900;6.346;2022-10-15T16:28:48;4.88;;;0.40;;
65358;SDS011;52491;45.900;6.346;2022-10-15T16:31:18;2.42;;;1.17;;
65358;SDS011;52491;45.900;6.346;2022-10-15T16:33:46;6.43;;;1.88;;
65358;SDS011;52491;45.900;6.346;2022-10-15T16:36:13;2.20;;;0.20;;
65358;SDS011;52491;45.900;6.346;2022-10-15T16:38:39;4.60;;;1.42;;
65358;SDS011;52491;45.900;6.346;2022-10-15T16:41:06;6.95;;;0.50;;
65358;SDS011;52491;45.900;6.346;2022-10-15T16:43:33;8.65;;;0.40;;
65358;SDS011;52491;45.900;6.346;2022-10-15T16:46:00;1.35;;;0.55;;
65358;SDS011;52491;45.900;6.346;2022-10-15T16:48:29;5.65;;;0.57;;
65358;SDS011;52491;45.900;6.346;2022-10-15T16:51:01;2.95;;;0.50;;
65358;SDS011;52491;45.900;6.346;2022-10-15T16:53:29;6.70;;;0.82;;
65358;SDS011;52491;45.900;6.346;2022-10-15T16:56:13;0.57;;;0.50;;
65358;SDS011;52491;45.900;6.346;2022-10-15T16:58:41;5.15;;;0.70;;
65358;SDS011;52491;45.900;6.346;2022-10-15T17:01:07;1.73;;;0.45;;